createdAt,value
2023-05-01T05:30:56.806Z,11.80
2023-05-01T05:33:58.594Z,11.70
2023-05-01T05:37:00.240Z,11.80
2023-05-01T05:40:01.938Z,11.60
2023-05-01T05:43:04.042Z,11.50
2023-05-01T05:46:06.004Z,11.50
2023-05-01T05:49:07.689Z,11.70
2023-05-01T05:52:09.332Z,11.80
2023-05-01T05:55:11.447Z,12.00
2023-05-01T05:58:14.554Z,12.20
2023-05-01T06:01:16.274Z,12.30
2023-05-01T06:04:17.896Z,12.60
2023-05-01T06:07:19.707Z,12.90
2023-05-01T06:10:21.354Z,13.10
2023-05-01T06:49:29.094Z,11.90
2023-05-01T06:52:31.027Z,12.20
2023-05-01T06:55:34.544Z,12.60
2023-05-01T06:58:37.554Z,12.80
2023-05-01T07:01:39.616Z,12.80
2023-05-01T07:04:42.130Z,12.80
2023-05-01T07:07:50.465Z,12.90
2023-05-01T07:10:59.893Z,13.10
2023-05-01T07:14:01.901Z,13.40
2023-05-01T07:17:03.975Z,13.70
2023-05-01T07:20:06.281Z,14.10
2023-05-01T07:23:07.925Z,14.20
2023-05-01T07:26:10.119Z,14.10
2023-05-01T07:29:13.298Z,14.30
2023-05-01T07:32:15.253Z,14.50
2023-05-01T07:35:17.013Z,14.70
2023-05-01T07:38:19.367Z,14.60
2023-05-01T07:41:22.662Z,14.80
2023-05-01T07:44:24.375Z,15.10
2023-05-01T07:47:27.659Z,15.00
2023-05-01T07:50:29.614Z,15.10
2023-05-01T07:53:31.864Z,15.00
2023-05-01T07:56:33.608Z,15.30
2023-05-01T07:59:35.291Z,15.60
2023-05-01T08:02:37.227Z,16.00
2023-05-01T08:05:42.582Z,16.20
2023-05-01T08:08:44.392Z,16.10
2023-05-01T08:11:46.120Z,16.40
2023-05-01T08:14:47.793Z,16.00
2023-05-01T08:17:51.111Z,15.70
2023-05-01T08:20:53.120Z,15.40
2023-05-01T08:23:56.493Z,15.30
2023-05-01T08:26:58.321Z,15.30
2023-05-01T08:29:59.960Z,15.80
2023-05-01T08:33:01.919Z,16.00
2023-05-01T08:36:03.742Z,16.00
2023-05-01T08:39:05.440Z,16.40
2023-05-01T08:42:08.084Z,16.00
2023-05-01T08:45:10.782Z,16.10
2023-05-01T08:48:13.185Z,16.30
2023-05-01T08:54:20.889Z,17.20
2023-05-01T08:57:22.829Z,18.30
2023-05-01T09:00:25.422Z,19.30
2023-05-01T09:03:28.890Z,21.00
2023-05-01T09:06:32.457Z,22.80
2023-05-01T09:09:37.563Z,23.40
2023-05-01T09:12:40.162Z,22.60
2023-05-01T09:15:42.152Z,20.90
2023-05-01T09:18:43.963Z,20.40
2023-05-01T09:21:46.526Z,20.40
2023-05-01T09:24:48.432Z,19.80
2023-05-01T09:27:51.169Z,19.40
2023-05-01T09:30:52.799Z,19.10
2023-05-01T09:34:05.578Z,18.90
2023-05-01T09:37:07.253Z,18.50
2023-05-01T09:40:14.282Z,18.90
2023-05-01T09:43:26.647Z,18.40
2023-05-01T09:46:28.599Z,17.80
2023-05-01T09:49:48.141Z,18.20
2023-05-01T09:52:52.441Z,19.20
2023-05-01T09:56:03.304Z,20.60
2023-05-01T09:59:22.045Z,20.50
2023-05-01T10:02:32.868Z,20.50
2023-05-01T10:05:44.802Z,20.90
2023-05-01T10:08:50.987Z,19.80
2023-05-01T10:11:57.234Z,18.60
2023-05-01T10:15:01.768Z,18.20
2023-05-01T10:18:11.578Z,18.00
2023-05-01T10:21:16.694Z,17.60
2023-05-01T10:24:18.667Z,17.80
2023-05-01T10:27:22.485Z,17.70
2023-05-01T10:30:26.466Z,18.00
2023-05-01T10:33:28.732Z,17.60
2023-05-01T10:36:37.332Z,17.90
2023-05-01T10:39:39.331Z,18.20
2023-05-01T10:43:16.113Z,17.90
2023-05-01T10:46:19.239Z,17.60
2023-05-01T10:49:21.557Z,17.80
2023-05-01T10:52:23.515Z,18.10
2023-05-01T10:55:35.234Z,18.40
2023-05-01T10:58:37.137Z,17.40
2023-05-01T11:01:45.061Z,18.00
2023-05-01T11:04:51.779Z,18.20
2023-05-01T11:08:31.593Z,18.50
2023-05-01T11:11:33.253Z,18.30
2023-05-01T11:14:53.599Z,18.70
2023-05-01T11:17:56.028Z,20.10
2023-05-01T11:20:58.013Z,19.90
2023-05-01T11:24:09.498Z,20.90
2023-05-01T11:27:13.737Z,21.20
2023-05-01T11:30:16.404Z,21.40
2023-05-01T11:33:23.235Z,22.00
2023-05-01T11:36:25.387Z,21.40
2023-05-01T11:39:27.205Z,21.30
2023-05-01T11:42:29.066Z,20.80
2023-05-01T11:45:31.829Z,20.40
2023-05-01T11:48:33.869Z,20.20
2023-05-01T11:51:35.781Z,20.40
2023-05-01T11:54:48.157Z,19.90
2023-05-01T11:57:53.570Z,20.70
2023-05-01T12:00:55.260Z,21.60
2023-05-01T12:03:57.357Z,20.80
2023-05-01T12:06:59.197Z,20.40
2023-05-01T12:10:01.325Z,20.60
2023-05-01T12:13:07.640Z,20.40
2023-05-01T12:16:09.960Z,20.10
2023-05-01T12:19:13.956Z,19.90
2023-05-01T12:22:15.719Z,19.90
2023-05-01T12:25:17.760Z,19.20
2023-05-01T12:28:20.441Z,19.30
2023-05-01T12:31:22.937Z,19.10
2023-05-01T12:34:30.897Z,18.80
2023-05-01T12:37:32.792Z,18.90
2023-05-01T12:40:34.460Z,19.30
2023-05-01T12:43:38.089Z,18.70
2023-05-01T12:46:40.219Z,18.50
2023-05-01T12:49:42.050Z,18.40
2023-05-01T12:52:43.849Z,18.30
2023-05-01T12:55:47.164Z,18.20
2023-05-01T12:58:49.493Z,18.40
2023-05-01T13:02:02.291Z,18.60
2023-05-01T13:05:10.046Z,18.60
2023-05-01T13:08:12.998Z,18.20
2023-05-01T13:11:17.341Z,18.50
2023-05-01T13:14:19.266Z,18.40
2023-05-01T13:17:31.988Z,18.30
2023-05-01T13:20:33.927Z,18.20
2023-05-01T13:23:37.470Z,18.40
2023-05-01T13:26:39.339Z,18.20
2023-05-01T13:29:45.641Z,18.70
2023-05-01T13:32:48.859Z,19.10
2023-05-01T13:35:50.751Z,19.60
2023-05-01T13:38:54.467Z,19.60
2023-05-01T13:41:56.318Z,18.80
2023-05-01T13:44:58.103Z,18.80
2023-05-01T13:47:59.851Z,18.40
2023-05-01T13:51:01.524Z,18.40
2023-05-01T13:54:07.206Z,18.80
2023-05-01T13:57:09.754Z,18.50
2023-05-01T14:00:19.137Z,18.60
2023-05-01T14:03:21.692Z,18.80
2023-05-01T14:06:26.171Z,18.40
2023-05-01T14:09:28.204Z,18.60
2023-05-01T14:12:31.238Z,18.70
2023-05-01T14:15:36.572Z,18.60
2023-05-01T14:18:45.546Z,18.40
2023-05-01T14:21:47.714Z,18.50
2023-05-01T14:24:51.039Z,18.40
2023-05-01T14:27:54.135Z,18.10
2023-05-01T14:30:56.024Z,18.00
2023-05-01T14:34:00.806Z,18.10
2023-05-01T14:37:02.517Z,18.00
2023-05-01T14:40:11.255Z,17.80
2023-05-01T14:43:16.823Z,17.80
2023-05-01T14:46:32.527Z,17.70
2023-05-01T14:49:35.482Z,17.60
2023-05-01T14:52:39.040Z,17.90
2023-05-01T14:55:41.889Z,18.00
2023-05-01T14:58:45.028Z,18.10
2023-05-01T15:01:46.725Z,18.10
2023-05-01T15:04:48.646Z,17.90
2023-05-01T15:07:51.166Z,17.50
2023-05-01T15:10:53.011Z,17.60
2023-05-01T15:13:54.776Z,17.50
2023-05-01T15:16:56.664Z,17.40
2023-05-01T15:19:58.431Z,16.90
2023-05-01T15:23:00.062Z,16.10
2023-05-01T15:26:01.741Z,15.50
2023-05-01T15:29:03.592Z,15.20
2023-05-01T15:32:12.392Z,15.00
2023-05-01T15:35:15.062Z,14.60
2023-05-01T15:38:17.216Z,14.00
2023-05-01T15:41:19.258Z,13.50
2023-05-01T15:44:21.148Z,12.60
2023-05-01T15:47:26.409Z,12.00
2023-05-01T15:50:28.284Z,11.60
2023-05-01T15:53:29.922Z,11.30
2023-05-01T15:56:36.591Z,11.10
2023-05-01T15:59:40.364Z,10.90
